Smith, Canada
Current Conditions -  °F | °C
As of 9:00 AM on Friday 24 Oct 2014 (Local Time) from CYZH Reporting Station
Few Clouds Few Clouds  
Wind Chill: 29°   Ceiling: Unl
Heat Index: 37°   Visibility: 9mi
Dew Point: 34°   Wind: 13mph
Humidity: 87%   Direction: 290°WNW
Pressure: 29.73"   Gusts: NA
Location:  55.17°N, 114.03°W
Report Text: CYZH 241500Z AUTO 29011KT 9SM FEW065 03/01 A2973 RMK SLP089
Loading
Personal Weather Stations






























Interactive Weather Map
Tropical Storm Tracking
New forecast layout! Learn more

10-Day Weather Forecast

Advertisements
Track Severe Weather on mobile